CheckWX is a tool to help pilots better visualize weather data.  It is not intended as a substitute for an official pre-flight weather briefing.

14:34:36 UTC

KFOK METAR
Francis S Gabreski Airport
Westhampton Beach, New York, USA
Current

42 mins ago

KFOK 221353Z 03011KT 10SM OVC060 16/10 A3003 RMK AO2 RAB21E33 SLP168 P0000 T01560100
Observed
Apr-22 @ 13:53 UTC
Wind
  • 030° at 11 KTS
Visibility
10 SM
Flight Rules
VFR
Cloud Levels
  • Overcast at 6,000' AGL
Temperature
16°C / 61°F
Dewpoint
10°C / 50°F
Humidity
68%
Altimeter
30.03" Hg
Pressure
1016.92 hPa
Current Rain
0.01"
Previous

2 hours ago

KFOK 221253Z 01008KT 10SM OVC065 13/09 A3004 RMK AO2 RAB46E53 SLP174 P0000 T01280089
Observed
Apr-22 @ 12:53 UTC
Wind
  • 010° at 8 KTS
Visibility
10 SM
Flight Rules
VFR
Cloud Levels
  • Overcast at 6,500' AGL
Temperature
13°C / 55°F
Dewpoint
C / 48°F
Humidity
77%
Altimeter
30.04" Hg
Pressure
1017.32 hPa
Current Rain
0.01"
Previous

3 hours ago

KFOK 221153Z 02008KT 10SM OVC080 12/09 A3006 RMK AO2 SLP179 60001 70004 T01220089 10122 20089 50004
Observed
Apr-22 @ 11:53 UTC
Wind
  • 020° at 8 KTS
Visibility
10 SM
Flight Rules
VFR
Cloud Levels
  • Overcast at 8,000' AGL
Temperature
12°C / 54°F
Dewpoint
C / 48°F
Humidity
82%
Altimeter
30.06" Hg
Pressure
1017.92 hPa
24 Hour Rain
0.04"